sensor_id;sensor_type;location;lat;lon;timestamp;P1;durP1;ratioP1;P2;durP2;ratioP2
6928;SDS011;3504;52.616;13.238;2022-09-13T00:04:21;6.63;;;4.40;;
6928;SDS011;3504;52.616;13.238;2022-09-13T00:09:22;7.00;;;4.37;;
6928;SDS011;3504;52.616;13.238;2022-09-13T00:14:23;5.43;;;4.20;;
6928;SDS011;3504;52.616;13.238;2022-09-13T00:19:26;5.10;;;4.60;;
6928;SDS011;3504;52.616;13.238;2022-09-13T00:24:27;7.00;;;5.03;;
6928;SDS011;3504;52.616;13.238;2022-09-13T00:29:28;5.10;;;4.63;;
6928;SDS011;3504;52.616;13.238;2022-09-13T00:34:29;5.70;;;4.60;;
6928;SDS011;3504;52.616;13.238;2022-09-13T00:39:31;5.20;;;4.70;;
6928;SDS011;3504;52.616;13.238;2022-09-13T00:44:46;5.00;;;4.20;;
6928;SDS011;3504;52.616;13.238;2022-09-13T00:50:00;4.67;;;4.27;;
6928;SDS011;3504;52.616;13.238;2022-09-13T00:55:15;4.67;;;4.27;;
6928;SDS011;3504;52.616;13.238;2022-09-13T01:00:34;4.73;;;4.33;;
6928;SDS011;3504;52.616;13.238;2022-09-13T01:05:36;4.40;;;4.00;;
6928;SDS011;3504;52.616;13.238;2022-09-13T01:10:43;5.10;;;4.60;;
6928;SDS011;3504;52.616;13.238;2022-09-13T01:15:44;5.03;;;4.50;;
6928;SDS011;3504;52.616;13.238;2022-09-13T01:26:47;5.17;;;4.70;;
6928;SDS011;3504;52.616;13.238;2022-09-13T01:37:43;5.17;;;4.33;;
6928;SDS011;3504;52.616;13.238;2022-09-13T01:43:26;4.63;;;4.00;;
6928;SDS011;3504;52.616;13.238;2022-09-13T01:49:45;6.27;;;4.67;;
6928;SDS011;3504;52.616;13.238;2022-09-13T01:54:47;5.33;;;4.77;;
6928;SDS011;3504;52.616;13.238;2022-09-13T02:00:05;5.57;;;4.37;;
6928;SDS011;3504;52.616;13.238;2022-09-13T02:06:03;5.73;;;4.20;;
6928;SDS011;3504;52.616;13.238;2022-09-13T02:15:56;6.10;;;5.60;;
6928;SDS011;3504;52.616;13.238;2022-09-13T02:21:04;4.90;;;4.50;;
6928;SDS011;3504;52.616;13.238;2022-09-13T02:26:15;5.47;;;4.97;;
6928;SDS011;3504;52.616;13.238;2022-09-13T02:31:20;4.97;;;4.47;;
6928;SDS011;3504;52.616;13.238;2022-09-13T02:36:37;5.27;;;4.83;;
6928;SDS011;3504;52.616;13.238;2022-09-13T02:58:20;5.87;;;5.27;;
6928;SDS011;3504;52.616;13.238;2022-09-13T03:03:51;5.97;;;5.47;;
6928;SDS011;3504;52.616;13.238;2022-09-13T03:08:58;6.20;;;5.70;;
6928;SDS011;3504;52.616;13.238;2022-09-13T03:30:41;5.87;;;5.33;;
6928;SDS011;3504;52.616;13.238;2022-09-13T03:36:18;6.03;;;5.53;;
6928;SDS011;3504;52.616;13.238;2022-09-13T03:41:29;6.17;;;5.57;;
6928;SDS011;3504;52.616;13.238;2022-09-13T03:46:40;6.43;;;5.90;;
6928;SDS011;3504;52.616;13.238;2022-09-13T03:51:45;6.67;;;6.10;;
6928;SDS011;3504;52.616;13.238;2022-09-13T03:57:04;6.00;;;5.50;;
6928;SDS011;3504;52.616;13.238;2022-09-13T04:02:14;7.10;;;6.23;;
6928;SDS011;3504;52.616;13.238;2022-09-13T04:07:18;7.17;;;6.40;;
6928;SDS011;3504;52.616;13.238;2022-09-13T04:12:21;6.90;;;6.20;;
6928;SDS011;3504;52.616;13.238;2022-09-13T04:17:22;7.80;;;6.77;;
6928;SDS011;3504;52.616;13.238;2022-09-13T04:22:24;7.03;;;6.33;;
6928;SDS011;3504;52.616;13.238;2022-09-13T04:27:24;8.83;;;6.80;;
6928;SDS011;3504;52.616;13.238;2022-09-13T04:32:26;7.67;;;6.90;;
6928;SDS011;3504;52.616;13.238;2022-09-13T04:37:27;7.30;;;6.50;;
6928;SDS011;3504;52.616;13.238;2022-09-13T04:42:29;7.73;;;7.03;;
6928;SDS011;3504;52.616;13.238;2022-09-13T04:47:29;8.37;;;6.40;;
6928;SDS011;3504;52.616;13.238;2022-09-13T04:52:31;7.30;;;6.60;;
6928;SDS011;3504;52.616;13.238;2022-09-13T04:57:32;8.87;;;7.27;;
6928;SDS011;3504;52.616;13.238;2022-09-13T05:02:33;7.63;;;6.70;;
6928;SDS011;3504;52.616;13.238;2022-09-13T05:07:33;8.03;;;7.27;;
6928;SDS011;3504;52.616;13.238;2022-09-13T05:12:35;7.43;;;6.67;;
6928;SDS011;3504;52.616;13.238;2022-09-13T05:17:36;7.43;;;6.73;;
6928;SDS011;3504;52.616;13.238;2022-09-13T05:22:38;7.80;;;7.03;;
6928;SDS011;3504;52.616;13.238;2022-09-13T05:27:38;9.07;;;8.17;;
6928;SDS011;3504;52.616;13.238;2022-09-13T05:32:40;9.93;;;7.47;;
6928;SDS011;3504;52.616;13.238;2022-09-13T05:37:40;9.23;;;7.50;;
6928;SDS011;3504;52.616;13.238;2022-09-13T05:42:42;9.47;;;8.50;;
6928;SDS011;3504;52.616;13.238;2022-09-13T05:47:43;8.60;;;7.90;;
6928;SDS011;3504;52.616;13.238;2022-09-13T05:52:54;8.63;;;7.63;;
6928;SDS011;3504;52.616;13.238;2022-09-13T05:57:55;10.27;;;7.60;;
6928;SDS011;3504;52.616;13.238;2022-09-13T06:02:57;9.77;;;8.70;;
6928;SDS011;3504;52.616;13.238;2022-09-13T06:07:57;9.60;;;8.50;;
6928;SDS011;3504;52.616;13.238;2022-09-13T06:12:59;9.67;;;8.77;;
6928;SDS011;3504;52.616;13.238;2022-09-13T06:18:00;11.73;;;9.23;;
6928;SDS011;3504;52.616;13.238;2022-09-13T06:23:01;11.13;;;9.20;;
6928;SDS011;3504;52.616;13.238;2022-09-13T06:28:02;10.50;;;9.47;;
6928;SDS011;3504;52.616;13.238;2022-09-13T06:33:04;12.43;;;10.13;;
6928;SDS011;3504;52.616;13.238;2022-09-13T06:38:05;11.13;;;9.97;;
6928;SDS011;3504;52.616;13.238;2022-09-13T06:43:07;13.60;;;10.37;;
6928;SDS011;3504;52.616;13.238;2022-09-13T06:48:07;11.67;;;10.47;;
6928;SDS011;3504;52.616;13.238;2022-09-13T06:53:09;11.80;;;9.73;;
6928;SDS011;3504;52.616;13.238;2022-09-13T06:58:10;12.47;;;11.07;;
6928;SDS011;3504;52.616;13.238;2022-09-13T07:03:12;12.00;;;10.80;;
6928;SDS011;3504;52.616;13.238;2022-09-13T07:08:12;12.30;;;11.03;;
6928;SDS011;3504;52.616;13.238;2022-09-13T07:13:14;11.93;;;10.73;;
6928;SDS011;3504;52.616;13.238;2022-09-13T07:18:36;11.60;;;10.40;;
6928;SDS011;3504;52.616;13.238;2022-09-13T07:23:39;11.13;;;9.77;;
6928;SDS011;3504;52.616;13.238;2022-09-13T07:28:41;13.30;;;11.90;;
6928;SDS011;3504;52.616;13.238;2022-09-13T07:33:45;13.63;;;12.23;;
6928;SDS011;3504;52.616;13.238;2022-09-13T07:38:47;13.30;;;11.57;;
6928;SDS011;3504;52.616;13.238;2022-09-13T07:43:49;17.17;;;12.37;;
6928;SDS011;3504;52.616;13.238;2022-09-13T07:48:51;14.50;;;12.67;;
6928;SDS011;3504;52.616;13.238;2022-09-13T07:53:57;13.40;;;11.13;;
6928;SDS011;3504;52.616;13.238;2022-09-13T07:59:04;13.93;;;12.00;;
6928;SDS011;3504;52.616;13.238;2022-09-13T08:04:13;15.00;;;12.17;;
6928;SDS011;3504;52.616;13.238;2022-09-13T08:09:17;14.20;;;12.07;;
6928;SDS011;3504;52.616;13.238;2022-09-13T08:14:19;12.90;;;11.57;;
6928;SDS011;3504;52.616;13.238;2022-09-13T08:19:22;12.57;;;11.27;;
6928;SDS011;3504;52.616;13.238;2022-09-13T08:24:24;13.37;;;11.20;;
6928;SDS011;3504;52.616;13.238;2022-09-13T08:29:25;15.60;;;12.03;;
6928;SDS011;3504;52.616;13.238;2022-09-13T08:34:27;13.63;;;11.90;;
6928;SDS011;3504;52.616;13.238;2022-09-13T08:39:27;13.20;;;11.07;;
6928;SDS011;3504;52.616;13.238;2022-09-13T08:44:36;12.10;;;10.80;;
6928;SDS011;3504;52.616;13.238;2022-09-13T08:49:49;11.07;;;9.97;;
6928;SDS011;3504;52.616;13.238;2022-09-13T08:55:01;13.17;;;10.77;;
6928;SDS011;3504;52.616;13.238;2022-09-13T09:00:24;12.80;;;10.37;;
6928;SDS011;3504;52.616;13.238;2022-09-13T09:05:42;11.53;;;10.27;;
6928;SDS011;3504;52.616;13.238;2022-09-13T09:10:50;12.47;;;10.47;;
6928;SDS011;3504;52.616;13.238;2022-09-13T09:16:00;12.13;;;9.77;;
6928;SDS011;3504;52.616;13.238;2022-09-13T09:21:08;12.80;;;10.73;;
6928;SDS011;3504;52.616;13.238;2022-09-13T09:26:18;12.60;;;10.52;;
6928;SDS011;3504;52.616;13.238;2022-09-13T09:31:34;11.98;;;10.15;;
6928;SDS011;3504;52.616;13.238;2022-09-13T09:37:07;12.88;;;10.02;;
6928;SDS011;3504;52.616;13.238;2022-09-13T09:42:26;11.45;;;9.75;;
6928;SDS011;3504;52.616;13.238;2022-09-13T09:47:33;13.80;;;10.00;;
6928;SDS011;3504;52.616;13.238;2022-09-13T09:52:45;12.23;;;10.20;;
6928;SDS011;3504;52.616;13.238;2022-09-13T09:58:03;12.23;;;10.40;;
6928;SDS011;3504;52.616;13.238;2022-09-13T10:03:13;9.70;;;8.70;;
6928;SDS011;3504;52.616;13.238;2022-09-13T10:08:27;11.68;;;9.05;;
6928;SDS011;3504;52.616;13.238;2022-09-13T10:13:32;13.40;;;8.60;;
6928;SDS011;3504;52.616;13.238;2022-09-13T10:18:34;12.27;;;9.30;;
6928;SDS011;3504;52.616;13.238;2022-09-13T10:23:36;9.00;;;8.02;;
6928;SDS011;3504;52.616;13.238;2022-09-13T10:34:18;10.15;;;8.18;;
6928;SDS011;3504;52.616;13.238;2022-09-13T10:39:25;11.45;;;9.02;;
6928;SDS011;3504;52.616;13.238;2022-09-13T10:44:30;10.68;;;8.23;;
6928;SDS011;3504;52.616;13.238;2022-09-13T10:49:49;9.90;;;8.38;;
6928;SDS011;3504;52.616;13.238;2022-09-13T10:54:52;11.63;;;8.93;;
6928;SDS011;3504;52.616;13.238;2022-09-13T10:59:55;11.68;;;9.13;;
6928;SDS011;3504;52.616;13.238;2022-09-13T11:10:26;11.63;;;9.50;;
6928;SDS011;3504;52.616;13.238;2022-09-13T11:38:28;11.40;;;9.27;;
6928;SDS011;3504;52.616;13.238;2022-09-13T11:55:31;11.80;;;10.05;;
6928;SDS011;3504;52.616;13.238;2022-09-13T12:00:40;13.40;;;11.48;;
6928;SDS011;3504;52.616;13.238;2022-09-13T12:05:51;14.30;;;11.88;;
6928;SDS011;3504;52.616;13.238;2022-09-13T12:11:10;12.15;;;10.75;;
6928;SDS011;3504;52.616;13.238;2022-09-13T12:16:25;13.02;;;9.98;;
6928;SDS011;3504;52.616;13.238;2022-09-13T12:21:34;12.93;;;9.38;;
6928;SDS011;3504;52.616;13.238;2022-09-13T12:26:45;8.32;;;7.50;;
6928;SDS011;3504;52.616;13.238;2022-09-13T12:31:49;7.85;;;6.97;;
6928;SDS011;3504;52.616;13.238;2022-09-13T12:42:44;9.07;;;5.93;;
6928;SDS011;3504;52.616;13.238;2022-09-13T12:48:15;6.13;;;4.65;;
6928;SDS011;3504;52.616;13.238;2022-09-13T12:59:53;5.30;;;4.53;;
6928;SDS011;3504;52.616;13.238;2022-09-13T13:04:59;5.05;;;3.67;;
6928;SDS011;3504;52.616;13.238;2022-09-13T13:10:28;4.68;;;3.90;;
6928;SDS011;3504;52.616;13.238;2022-09-13T13:21:03;4.55;;;3.75;;
6928;SDS011;3504;52.616;13.238;2022-09-13T13:32:08;4.72;;;4.25;;
6928;SDS011;3504;52.616;13.238;2022-09-13T13:52:49;5.70;;;4.72;;
6928;SDS011;3504;52.616;13.238;2022-09-13T14:09:19;4.95;;;3.72;;
6928;SDS011;3504;52.616;13.238;2022-09-13T14:20:25;3.92;;;3.42;;
6928;SDS011;3504;52.616;13.238;2022-09-13T14:25:27;4.50;;;3.90;;
6928;SDS011;3504;52.616;13.238;2022-09-13T14:35:39;3.58;;;3.25;;
6928;SDS011;3504;52.616;13.238;2022-09-13T14:40:40;3.55;;;3.25;;
6928;SDS011;3504;52.616;13.238;2022-09-13T14:45:42;3.40;;;3.10;;
6928;SDS011;3504;52.616;13.238;2022-09-13T14:50:47;3.17;;;2.90;;
6928;SDS011;3504;52.616;13.238;2022-09-13T14:55:55;3.95;;;3.58;;
6928;SDS011;3504;52.616;13.238;2022-09-13T15:01:04;5.40;;;4.10;;
6928;SDS011;3504;52.616;13.238;2022-09-13T15:06:20;3.90;;;3.38;;
6928;SDS011;3504;52.616;13.238;2022-09-13T15:11:28;4.25;;;3.70;;
6928;SDS011;3504;52.616;13.238;2022-09-13T15:16:46;4.55;;;4.15;;
6928;SDS011;3504;52.616;13.238;2022-09-13T15:22:17;4.93;;;4.40;;
6928;SDS011;3504;52.616;13.238;2022-09-13T15:27:24;4.97;;;4.47;;
6928;SDS011;3504;52.616;13.238;2022-09-13T15:37:36;6.07;;;4.35;;
6928;SDS011;3504;52.616;13.238;2022-09-13T15:42:37;6.05;;;4.80;;
6928;SDS011;3504;52.616;13.238;2022-09-13T15:47:39;5.00;;;4.25;;
6928;SDS011;3504;52.616;13.238;2022-09-13T15:52:39;5.07;;;4.05;;
6928;SDS011;3504;52.616;13.238;2022-09-13T15:57:41;4.95;;;4.40;;
6928;SDS011;3504;52.616;13.238;2022-09-13T16:02:44;4.57;;;4.18;;
6928;SDS011;3504;52.616;13.238;2022-09-13T16:07:46;5.68;;;4.53;;
6928;SDS011;3504;52.616;13.238;2022-09-13T16:12:47;4.75;;;3.67;;
6928;SDS011;3504;52.616;13.238;2022-09-13T16:17:49;5.65;;;4.30;;
6928;SDS011;3504;52.616;13.238;2022-09-13T16:22:49;4.80;;;4.20;;
6928;SDS011;3504;52.616;13.238;2022-09-13T16:27:51;4.25;;;3.85;;
6928;SDS011;3504;52.616;13.238;2022-09-13T16:32:54;5.40;;;4.10;;
6928;SDS011;3504;52.616;13.238;2022-09-13T16:37:55;4.75;;;4.07;;
6928;SDS011;3504;52.616;13.238;2022-09-13T16:42:56;5.28;;;4.28;;
6928;SDS011;3504;52.616;13.238;2022-09-13T16:47:58;6.15;;;5.55;;
6928;SDS011;3504;52.616;13.238;2022-09-13T16:52:59;6.43;;;5.47;;
6928;SDS011;3504;52.616;13.238;2022-09-13T16:58:01;7.45;;;5.53;;
6928;SDS011;3504;52.616;13.238;2022-09-13T17:03:01;5.82;;;5.28;;
6928;SDS011;3504;52.616;13.238;2022-09-13T17:08:03;10.13;;;5.75;;
6928;SDS011;3504;52.616;13.238;2022-09-13T17:13:03;8.30;;;6.22;;
6928;SDS011;3504;52.616;13.238;2022-09-13T17:18:05;7.57;;;6.78;;
6928;SDS011;3504;52.616;13.238;2022-09-13T17:23:06;6.90;;;5.68;;
6928;SDS011;3504;52.616;13.238;2022-09-13T17:28:08;7.05;;;5.40;;
6928;SDS011;3504;52.616;13.238;2022-09-13T17:33:08;9.02;;;6.70;;
6928;SDS011;3504;52.616;13.238;2022-09-13T17:38:10;6.63;;;5.70;;
6928;SDS011;3504;52.616;13.238;2022-09-13T17:43:11;8.80;;;5.80;;
6928;SDS011;3504;52.616;13.238;2022-09-13T17:48:13;6.85;;;5.35;;
6928;SDS011;3504;52.616;13.238;2022-09-13T17:53:13;6.72;;;5.50;;
6928;SDS011;3504;52.616;13.238;2022-09-13T17:58:15;5.45;;;4.95;;
6928;SDS011;3504;52.616;13.238;2022-09-13T18:03:16;6.68;;;5.45;;
6928;SDS011;3504;52.616;13.238;2022-09-13T18:08:18;6.20;;;5.60;;
6928;SDS011;3504;52.616;13.238;2022-09-13T18:13:18;6.88;;;6.18;;
6928;SDS011;3504;52.616;13.238;2022-09-13T18:18:21;6.50;;;5.60;;
6928;SDS011;3504;52.616;13.238;2022-09-13T18:23:22;6.82;;;5.68;;
6928;SDS011;3504;52.616;13.238;2022-09-13T18:28:25;5.35;;;4.85;;
6928;SDS011;3504;52.616;13.238;2022-09-13T18:33:27;6.20;;;5.45;;
6928;SDS011;3504;52.616;13.238;2022-09-13T18:38:33;6.88;;;5.93;;
6928;SDS011;3504;52.616;13.238;2022-09-13T18:43:37;6.03;;;5.32;;
6928;SDS011;3504;52.616;13.238;2022-09-13T18:48:40;6.90;;;5.25;;
6928;SDS011;3504;52.616;13.238;2022-09-13T18:53:43;6.50;;;5.72;;
6928;SDS011;3504;52.616;13.238;2022-09-13T18:58:46;5.70;;;5.10;;
6928;SDS011;3504;52.616;13.238;2022-09-13T19:03:56;7.10;;;4.90;;
6928;SDS011;3504;52.616;13.238;2022-09-13T19:09:01;9.13;;;5.78;;
6928;SDS011;3504;52.616;13.238;2022-09-13T19:14:02;7.93;;;6.43;;
6928;SDS011;3504;52.616;13.238;2022-09-13T19:19:05;6.35;;;5.20;;
6928;SDS011;3504;52.616;13.238;2022-09-13T19:24:05;6.57;;;5.83;;
6928;SDS011;3504;52.616;13.238;2022-09-13T19:29:11;8.40;;;5.55;;
6928;SDS011;3504;52.616;13.238;2022-09-13T19:34:14;7.00;;;5.43;;
6928;SDS011;3504;52.616;13.238;2022-09-13T19:39:19;6.67;;;5.90;;
6928;SDS011;3504;52.616;13.238;2022-09-13T19:44:19;6.30;;;5.60;;
6928;SDS011;3504;52.616;13.238;2022-09-13T19:49:22;6.10;;;5.50;;
6928;SDS011;3504;52.616;13.238;2022-09-13T19:54:22;6.80;;;5.30;;
6928;SDS011;3504;52.616;13.238;2022-09-13T19:59:24;7.13;;;6.13;;
6928;SDS011;3504;52.616;13.238;2022-09-13T20:04:24;6.80;;;6.10;;
6928;SDS011;3504;52.616;13.238;2022-09-13T20:09:27;7.50;;;6.47;;
6928;SDS011;3504;52.616;13.238;2022-09-13T20:14:29;9.90;;;7.37;;
6928;SDS011;3504;52.616;13.238;2022-09-13T20:19:32;7.40;;;6.70;;
6928;SDS011;3504;52.616;13.238;2022-09-13T20:24:32;7.93;;;7.03;;
6928;SDS011;3504;52.616;13.238;2022-09-13T20:29:34;6.07;;;5.27;;
6928;SDS011;3504;52.616;13.238;2022-09-13T20:34:35;6.23;;;5.63;;
6928;SDS011;3504;52.616;13.238;2022-09-13T20:39:37;6.97;;;5.57;;
6928;SDS011;3504;52.616;13.238;2022-09-13T20:44:38;5.50;;;4.70;;
6928;SDS011;3504;52.616;13.238;2022-09-13T20:49:42;5.90;;;4.60;;
6928;SDS011;3504;52.616;13.238;2022-09-13T20:54:42;6.17;;;4.90;;
6928;SDS011;3504;52.616;13.238;2022-09-13T20:59:44;4.73;;;3.83;;
6928;SDS011;3504;52.616;13.238;2022-09-13T21:04:45;4.43;;;4.03;;
6928;SDS011;3504;52.616;13.238;2022-09-13T21:09:47;5.10;;;3.57;;
6928;SDS011;3504;52.616;13.238;2022-09-13T21:14:47;5.37;;;4.00;;
6928;SDS011;3504;52.616;13.238;2022-09-13T21:19:49;7.90;;;4.03;;
6928;SDS011;3504;52.616;13.238;2022-09-13T21:24:50;5.90;;;3.60;;
6928;SDS011;3504;52.616;13.238;2022-09-13T21:29:51;6.73;;;3.77;;
6928;SDS011;3504;52.616;13.238;2022-09-13T21:34:52;6.30;;;3.93;;
6928;SDS011;3504;52.616;13.238;2022-09-13T21:39:53;3.40;;;3.10;;
6928;SDS011;3504;52.616;13.238;2022-09-13T21:44:54;7.17;;;3.80;;
6928;SDS011;3504;52.616;13.238;2022-09-13T21:49:58;5.30;;;3.20;;
6928;SDS011;3504;52.616;13.238;2022-09-13T21:54:58;7.57;;;3.73;;
6928;SDS011;3504;52.616;13.238;2022-09-13T22:00:00;4.40;;;3.30;;
6928;SDS011;3504;52.616;13.238;2022-09-13T22:05:01;4.97;;;3.33;;
6928;SDS011;3504;52.616;13.238;2022-09-13T22:10:03;5.80;;;2.70;;
6928;SDS011;3504;52.616;13.238;2022-09-13T22:15:04;4.30;;;2.50;;
6928;SDS011;3504;52.616;13.238;2022-09-13T22:20:06;5.87;;;3.00;;
6928;SDS011;3504;52.616;13.238;2022-09-13T22:25:07;4.83;;;3.03;;
6928;SDS011;3504;52.616;13.238;2022-09-13T22:30:10;8.17;;;2.80;;
6928;SDS011;3504;52.616;13.238;2022-09-13T22:35:11;6.60;;;2.80;;
6928;SDS011;3504;52.616;13.238;2022-09-13T22:40:12;4.73;;;2.50;;
6928;SDS011;3504;52.616;13.238;2022-09-13T22:45:13;5.40;;;2.50;;
6928;SDS011;3504;52.616;13.238;2022-09-13T22:50:15;3.77;;;2.20;;
6928;SDS011;3504;52.616;13.238;2022-09-13T22:55:15;6.30;;;3.00;;
6928;SDS011;3504;52.616;13.238;2022-09-13T23:00:18;5.03;;;2.63;;
6928;SDS011;3504;52.616;13.238;2022-09-13T23:05:18;4.70;;;2.40;;
6928;SDS011;3504;52.616;13.238;2022-09-13T23:10:20;8.67;;;3.20;;
6928;SDS011;3504;52.616;13.238;2022-09-13T23:15:20;4.80;;;2.90;;
6928;SDS011;3504;52.616;13.238;2022-09-13T23:20:22;4.97;;;2.57;;
6928;SDS011;3504;52.616;13.238;2022-09-13T23:25:23;5.00;;;2.90;;
6928;SDS011;3504;52.616;13.238;2022-09-13T23:30:25;7.00;;;3.10;;
6928;SDS011;3504;52.616;13.238;2022-09-13T23:35:25;7.87;;;3.17;;
6928;SDS011;3504;52.616;13.238;2022-09-13T23:40:27;5.90;;;3.37;;
6928;SDS011;3504;52.616;13.238;2022-09-13T23:45:28;3.17;;;2.57;;
6928;SDS011;3504;52.616;13.238;2022-09-13T23:50:30;3.70;;;2.87;;
6928;SDS011;3504;52.616;13.238;2022-09-13T23:55:30;6.03;;;3.07;;
